sensor_id;sensor_type;location;lat;lon;timestamp;P1;durP1;ratioP1;P2;durP2;ratioP2
64335;SDS011;50672;53.362;-6.240;2022-11-20T00:00:55;7.13;;;2.20;;
64335;SDS011;50672;53.362;-6.240;2022-11-20T00:03:22;5.93;;;2.10;;
64335;SDS011;50672;53.362;-6.240;2022-11-20T00:05:49;8.10;;;3.30;;
64335;SDS011;50672;53.362;-6.240;2022-11-20T00:08:15;7.33;;;1.97;;
64335;SDS011;50672;53.362;-6.240;2022-11-20T00:10:42;5.17;;;1.97;;
64335;SDS011;50672;53.362;-6.240;2022-11-20T00:13:09;8.93;;;2.30;;
64335;SDS011;50672;53.362;-6.240;2022-11-20T00:15:36;10.27;;;2.27;;
64335;SDS011;50672;53.362;-6.240;2022-11-20T00:18:03;8.27;;;2.23;;
64335;SDS011;50672;53.362;-6.240;2022-11-20T00:20:29;9.97;;;3.00;;
64335;SDS011;50672;53.362;-6.240;2022-11-20T00:22:56;10.07;;;2.77;;
64335;SDS011;50672;53.362;-6.240;2022-11-20T00:25:22;8.93;;;2.57;;
64335;SDS011;50672;53.362;-6.240;2022-11-20T00:27:49;9.97;;;2.07;;
64335;SDS011;50672;53.362;-6.240;2022-11-20T00:30:16;10.77;;;2.37;;
64335;SDS011;50672;53.362;-6.240;2022-11-20T00:32:43;6.47;;;2.20;;
64335;SDS011;50672;53.362;-6.240;2022-11-20T00:35:09;12.10;;;2.27;;
64335;SDS011;50672;53.362;-6.240;2022-11-20T00:37:36;13.87;;;2.63;;
64335;SDS011;50672;53.362;-6.240;2022-11-20T00:40:03;10.80;;;2.00;;
64335;SDS011;50672;53.362;-6.240;2022-11-20T00:42:29;10.77;;;2.30;;
64335;SDS011;50672;53.362;-6.240;2022-11-20T00:44:58;15.50;;;2.70;;
64335;SDS011;50672;53.362;-6.240;2022-11-20T00:47:25;18.93;;;3.13;;
64335;SDS011;50672;53.362;-6.240;2022-11-20T00:49:52;9.73;;;2.80;;
64335;SDS011;50672;53.362;-6.240;2022-11-20T00:52:18;8.00;;;2.17;;
64335;SDS011;50672;53.362;-6.240;2022-11-20T00:54:45;10.37;;;3.07;;
64335;SDS011;50672;53.362;-6.240;2022-11-20T00:57:11;16.60;;;4.33;;
64335;SDS011;50672;53.362;-6.240;2022-11-20T00:59:38;11.70;;;2.63;;
64335;SDS011;50672;53.362;-6.240;2022-11-20T01:02:04;9.63;;;2.43;;
64335;SDS011;50672;53.362;-6.240;2022-11-20T01:04:31;14.17;;;2.57;;
64335;SDS011;50672;53.362;-6.240;2022-11-20T01:06:57;22.40;;;3.17;;
64335;SDS011;50672;53.362;-6.240;2022-11-20T01:09:24;12.97;;;3.20;;
64335;SDS011;50672;53.362;-6.240;2022-11-20T01:11:51;9.67;;;2.70;;
64335;SDS011;50672;53.362;-6.240;2022-11-20T01:14:19;13.90;;;2.57;;
64335;SDS011;50672;53.362;-6.240;2022-11-20T01:16:46;15.07;;;2.73;;
64335;SDS011;50672;53.362;-6.240;2022-11-20T01:19:15;22.17;;;5.57;;
64335;SDS011;50672;53.362;-6.240;2022-11-20T01:21:44;18.63;;;5.47;;
64335;SDS011;50672;53.362;-6.240;2022-11-20T01:24:50;16.90;;;3.37;;
64335;SDS011;50672;53.362;-6.240;2022-11-20T01:27:34;17.83;;;3.23;;
64335;SDS011;50672;53.362;-6.240;2022-11-20T01:30:01;12.00;;;2.60;;
64335;SDS011;50672;53.362;-6.240;2022-11-20T01:32:27;15.37;;;3.20;;
64335;SDS011;50672;53.362;-6.240;2022-11-20T01:34:53;15.93;;;3.00;;
64335;SDS011;50672;53.362;-6.240;2022-11-20T01:37:20;17.70;;;3.40;;
64335;SDS011;50672;53.362;-6.240;2022-11-20T01:39:47;17.83;;;3.67;;
64335;SDS011;50672;53.362;-6.240;2022-11-20T01:42:13;19.97;;;3.53;;
64335;SDS011;50672;53.362;-6.240;2022-11-20T01:44:59;16.93;;;2.77;;
64335;SDS011;50672;53.362;-6.240;2022-11-20T01:47:44;14.90;;;2.70;;
64335;SDS011;50672;53.362;-6.240;2022-11-20T01:50:19;17.73;;;3.23;;
64335;SDS011;50672;53.362;-6.240;2022-11-20T01:52:49;28.63;;;11.87;;
64335;SDS011;50672;53.362;-6.240;2022-11-20T01:55:19;25.37;;;10.50;;
64335;SDS011;50672;53.362;-6.240;2022-11-20T01:57:46;22.50;;;8.37;;
64335;SDS011;50672;53.362;-6.240;2022-11-20T02:00:14;16.33;;;4.23;;
64335;SDS011;50672;53.362;-6.240;2022-11-20T02:02:42;15.03;;;3.73;;
64335;SDS011;50672;53.362;-6.240;2022-11-20T02:05:23;21.23;;;3.27;;
64335;SDS011;50672;53.362;-6.240;2022-11-20T02:07:54;13.80;;;3.20;;
64335;SDS011;50672;53.362;-6.240;2022-11-20T02:10:21;16.77;;;3.67;;
64335;SDS011;50672;53.362;-6.240;2022-11-20T02:12:48;19.47;;;3.60;;
64335;SDS011;50672;53.362;-6.240;2022-11-20T02:15:33;18.53;;;4.43;;
64335;SDS011;50672;53.362;-6.240;2022-11-20T02:18:00;16.30;;;3.90;;
64335;SDS011;50672;53.362;-6.240;2022-11-20T02:20:26;16.30;;;3.33;;
64335;SDS011;50672;53.362;-6.240;2022-11-20T02:23:01;20.63;;;4.13;;
64335;SDS011;50672;53.362;-6.240;2022-11-20T02:25:28;22.83;;;3.80;;
64335;SDS011;50672;53.362;-6.240;2022-11-20T02:27:55;20.33;;;3.50;;
64335;SDS011;50672;53.362;-6.240;2022-11-20T02:30:22;19.17;;;2.60;;
64335;SDS011;50672;53.362;-6.240;2022-11-20T02:32:48;21.83;;;3.43;;
64335;SDS011;50672;53.362;-6.240;2022-11-20T02:37:46;20.93;;;5.10;;
64335;SDS011;50672;53.362;-6.240;2022-11-20T02:40:13;20.30;;;4.43;;
64335;SDS011;50672;53.362;-6.240;2022-11-20T02:42:40;20.80;;;3.50;;
64335;SDS011;50672;53.362;-6.240;2022-11-20T02:45:07;17.37;;;2.67;;
64335;SDS011;50672;53.362;-6.240;2022-11-20T02:47:33;19.60;;;3.17;;
64335;SDS011;50672;53.362;-6.240;2022-11-20T02:50:00;15.90;;;3.00;;
64335;SDS011;50672;53.362;-6.240;2022-11-20T02:52:27;13.10;;;2.33;;
64335;SDS011;50672;53.362;-6.240;2022-11-20T02:54:54;16.17;;;3.03;;
64335;SDS011;50672;53.362;-6.240;2022-11-20T02:57:21;17.77;;;3.73;;
64335;SDS011;50672;53.362;-6.240;2022-11-20T02:59:47;17.93;;;3.20;;
64335;SDS011;50672;53.362;-6.240;2022-11-20T03:02:14;15.10;;;3.03;;
64335;SDS011;50672;53.362;-6.240;2022-11-20T03:04:40;16.83;;;2.90;;
64335;SDS011;50672;53.362;-6.240;2022-11-20T03:07:07;17.90;;;3.60;;
64335;SDS011;50672;53.362;-6.240;2022-11-20T03:09:34;15.77;;;2.70;;
64335;SDS011;50672;53.362;-6.240;2022-11-20T03:12:01;15.13;;;2.80;;
64335;SDS011;50672;53.362;-6.240;2022-11-20T03:14:27;8.53;;;2.77;;
64335;SDS011;50672;53.362;-6.240;2022-11-20T03:16:54;23.60;;;3.67;;
64335;SDS011;50672;53.362;-6.240;2022-11-20T03:19:21;17.17;;;3.33;;
64335;SDS011;50672;53.362;-6.240;2022-11-20T03:21:48;18.30;;;3.87;;
64335;SDS011;50672;53.362;-6.240;2022-11-20T03:24:15;11.43;;;2.57;;
64335;SDS011;50672;53.362;-6.240;2022-11-20T03:26:42;15.53;;;3.20;;
64335;SDS011;50672;53.362;-6.240;2022-11-20T03:29:09;15.87;;;3.67;;
64335;SDS011;50672;53.362;-6.240;2022-11-20T03:31:36;12.70;;;3.00;;
64335;SDS011;50672;53.362;-6.240;2022-11-20T03:34:03;13.00;;;3.07;;
64335;SDS011;50672;53.362;-6.240;2022-11-20T03:36:30;11.80;;;2.00;;
64335;SDS011;50672;53.362;-6.240;2022-11-20T03:38:57;10.83;;;2.23;;
64335;SDS011;50672;53.362;-6.240;2022-11-20T03:41:25;12.87;;;1.97;;
64335;SDS011;50672;53.362;-6.240;2022-11-20T03:43:56;14.07;;;2.97;;
64335;SDS011;50672;53.362;-6.240;2022-11-20T03:46:23;10.50;;;3.07;;
64335;SDS011;50672;53.362;-6.240;2022-11-20T03:48:50;15.53;;;2.67;;
64335;SDS011;50672;53.362;-6.240;2022-11-20T03:53:44;14.07;;;3.50;;
64335;SDS011;50672;53.362;-6.240;2022-11-20T03:56:12;11.57;;;2.90;;
64335;SDS011;50672;53.362;-6.240;2022-11-20T03:58:39;8.17;;;1.97;;
64335;SDS011;50672;53.362;-6.240;2022-11-20T04:01:10;10.40;;;2.47;;
64335;SDS011;50672;53.362;-6.240;2022-11-20T04:03:37;9.83;;;1.70;;
64335;SDS011;50672;53.362;-6.240;2022-11-20T04:06:08;11.20;;;2.07;;
64335;SDS011;50672;53.362;-6.240;2022-11-20T04:08:35;12.90;;;3.50;;
64335;SDS011;50672;53.362;-6.240;2022-11-20T04:11:15;10.87;;;2.50;;
64335;SDS011;50672;53.362;-6.240;2022-11-20T04:13:42;16.63;;;2.40;;
64335;SDS011;50672;53.362;-6.240;2022-11-20T04:16:09;11.77;;;2.07;;
64335;SDS011;50672;53.362;-6.240;2022-11-20T04:18:36;7.07;;;1.73;;
64335;SDS011;50672;53.362;-6.240;2022-11-20T04:21:02;11.67;;;2.13;;
64335;SDS011;50672;53.362;-6.240;2022-11-20T04:23:29;7.17;;;1.80;;
64335;SDS011;50672;53.362;-6.240;2022-11-20T04:26:06;12.67;;;1.97;;
64335;SDS011;50672;53.362;-6.240;2022-11-20T04:28:33;6.30;;;1.70;;
64335;SDS011;50672;53.362;-6.240;2022-11-20T04:31:10;8.77;;;1.50;;
64335;SDS011;50672;53.362;-6.240;2022-11-20T04:33:37;10.40;;;1.57;;
64335;SDS011;50672;53.362;-6.240;2022-11-20T04:36:04;12.80;;;2.20;;
64335;SDS011;50672;53.362;-6.240;2022-11-20T04:38:32;12.20;;;2.17;;
64335;SDS011;50672;53.362;-6.240;2022-11-20T04:41:02;13.37;;;2.27;;
64335;SDS011;50672;53.362;-6.240;2022-11-20T04:43:29;11.00;;;2.30;;
64335;SDS011;50672;53.362;-6.240;2022-11-20T04:45:56;13.27;;;2.00;;
64335;SDS011;50672;53.362;-6.240;2022-11-20T04:48:24;10.30;;;2.10;;
64335;SDS011;50672;53.362;-6.240;2022-11-20T04:50:51;11.93;;;1.87;;
64335;SDS011;50672;53.362;-6.240;2022-11-20T04:53:17;13.83;;;2.80;;
64335;SDS011;50672;53.362;-6.240;2022-11-20T04:55:44;10.50;;;2.50;;
64335;SDS011;50672;53.362;-6.240;2022-11-20T04:58:11;11.70;;;2.47;;
64335;SDS011;50672;53.362;-6.240;2022-11-20T05:00:38;13.23;;;1.97;;
64335;SDS011;50672;53.362;-6.240;2022-11-20T05:03:05;11.87;;;1.90;;
64335;SDS011;50672;53.362;-6.240;2022-11-20T05:05:33;17.37;;;2.30;;
64335;SDS011;50672;53.362;-6.240;2022-11-20T05:08:00;13.77;;;3.10;;
64335;SDS011;50672;53.362;-6.240;2022-11-20T05:10:27;15.73;;;3.60;;
64335;SDS011;50672;53.362;-6.240;2022-11-20T05:12:53;14.40;;;3.13;;
64335;SDS011;50672;53.362;-6.240;2022-11-20T05:15:20;12.70;;;3.17;;
64335;SDS011;50672;53.362;-6.240;2022-11-20T05:17:47;17.07;;;3.43;;
64335;SDS011;50672;53.362;-6.240;2022-11-20T05:20:15;14.03;;;2.53;;
64335;SDS011;50672;53.362;-6.240;2022-11-20T05:22:41;14.13;;;3.10;;
64335;SDS011;50672;53.362;-6.240;2022-11-20T05:25:09;11.40;;;2.10;;
64335;SDS011;50672;53.362;-6.240;2022-11-20T05:27:36;16.20;;;2.90;;
64335;SDS011;50672;53.362;-6.240;2022-11-20T05:30:03;12.83;;;2.13;;
64335;SDS011;50672;53.362;-6.240;2022-11-20T05:32:29;12.50;;;2.70;;
64335;SDS011;50672;53.362;-6.240;2022-11-20T05:34:56;15.73;;;2.97;;
64335;SDS011;50672;53.362;-6.240;2022-11-20T05:37:22;10.67;;;3.00;;
64335;SDS011;50672;53.362;-6.240;2022-11-20T05:39:49;13.50;;;2.13;;
64335;SDS011;50672;53.362;-6.240;2022-11-20T05:42:16;13.70;;;3.10;;
64335;SDS011;50672;53.362;-6.240;2022-11-20T05:44:58;13.13;;;3.30;;
64335;SDS011;50672;53.362;-6.240;2022-11-20T05:47:25;13.23;;;2.30;;
64335;SDS011;50672;53.362;-6.240;2022-11-20T05:49:51;10.07;;;2.00;;
64335;SDS011;50672;53.362;-6.240;2022-11-20T05:52:18;10.70;;;1.93;;
64335;SDS011;50672;53.362;-6.240;2022-11-20T05:54:45;12.13;;;2.90;;
64335;SDS011;50672;53.362;-6.240;2022-11-20T05:57:11;10.07;;;2.10;;
64335;SDS011;50672;53.362;-6.240;2022-11-20T05:59:38;10.93;;;2.00;;
64335;SDS011;50672;53.362;-6.240;2022-11-20T06:02:04;8.83;;;2.17;;
64335;SDS011;50672;53.362;-6.240;2022-11-20T06:04:31;14.00;;;2.17;;
64335;SDS011;50672;53.362;-6.240;2022-11-20T06:06:58;13.13;;;2.20;;
64335;SDS011;50672;53.362;-6.240;2022-11-20T06:09:24;9.13;;;2.13;;
64335;SDS011;50672;53.362;-6.240;2022-11-20T06:11:51;8.77;;;1.43;;
64335;SDS011;50672;53.362;-6.240;2022-11-20T06:14:18;6.53;;;1.50;;
64335;SDS011;50672;53.362;-6.240;2022-11-20T06:16:44;11.77;;;1.70;;
64335;SDS011;50672;53.362;-6.240;2022-11-20T06:19:11;9.27;;;1.40;;
64335;SDS011;50672;53.362;-6.240;2022-11-20T06:21:37;12.70;;;1.77;;
64335;SDS011;50672;53.362;-6.240;2022-11-20T06:24:04;10.43;;;2.13;;
64335;SDS011;50672;53.362;-6.240;2022-11-20T06:26:31;10.37;;;2.60;;
64335;SDS011;50672;53.362;-6.240;2022-11-20T06:28:57;5.73;;;1.40;;
64335;SDS011;50672;53.362;-6.240;2022-11-20T06:31:24;9.50;;;1.57;;
64335;SDS011;50672;53.362;-6.240;2022-11-20T06:33:52;10.33;;;2.60;;
64335;SDS011;50672;53.362;-6.240;2022-11-20T06:36:20;8.37;;;1.53;;
64335;SDS011;50672;53.362;-6.240;2022-11-20T06:38:47;11.57;;;1.80;;
64335;SDS011;50672;53.362;-6.240;2022-11-20T06:41:15;8.77;;;1.67;;
64335;SDS011;50672;53.362;-6.240;2022-11-20T06:43:42;9.93;;;2.27;;
64335;SDS011;50672;53.362;-6.240;2022-11-20T06:46:09;9.47;;;1.60;;
64335;SDS011;50672;53.362;-6.240;2022-11-20T06:48:36;8.90;;;2.60;;
64335;SDS011;50672;53.362;-6.240;2022-11-20T06:51:03;7.73;;;2.33;;
64335;SDS011;50672;53.362;-6.240;2022-11-20T06:53:30;9.67;;;2.10;;
64335;SDS011;50672;53.362;-6.240;2022-11-20T06:55:57;9.83;;;2.03;;
64335;SDS011;50672;53.362;-6.240;2022-11-20T06:58:27;7.77;;;1.90;;
64335;SDS011;50672;53.362;-6.240;2022-11-20T07:00:57;7.03;;;1.47;;
64335;SDS011;50672;53.362;-6.240;2022-11-20T07:03:24;9.17;;;2.83;;
64335;SDS011;50672;53.362;-6.240;2022-11-20T07:05:51;11.47;;;2.30;;
64335;SDS011;50672;53.362;-6.240;2022-11-20T07:08:17;11.97;;;1.57;;
64335;SDS011;50672;53.362;-6.240;2022-11-20T07:10:44;4.73;;;1.40;;
64335;SDS011;50672;53.362;-6.240;2022-11-20T07:13:10;5.83;;;1.30;;
64335;SDS011;50672;53.362;-6.240;2022-11-20T07:15:38;11.20;;;2.80;;
64335;SDS011;50672;53.362;-6.240;2022-11-20T07:18:04;9.83;;;2.03;;
64335;SDS011;50672;53.362;-6.240;2022-11-20T07:20:31;9.10;;;1.90;;
64335;SDS011;50672;53.362;-6.240;2022-11-20T07:22:58;9.97;;;2.27;;
64335;SDS011;50672;53.362;-6.240;2022-11-20T07:25:24;6.13;;;2.03;;
64335;SDS011;50672;53.362;-6.240;2022-11-20T07:27:51;13.47;;;2.77;;
64335;SDS011;50672;53.362;-6.240;2022-11-20T07:30:18;12.80;;;2.67;;
64335;SDS011;50672;53.362;-6.240;2022-11-20T07:32:50;12.63;;;2.27;;
64335;SDS011;50672;53.362;-6.240;2022-11-20T07:35:16;14.73;;;2.23;;
64335;SDS011;50672;53.362;-6.240;2022-11-20T07:37:43;11.27;;;2.40;;
64335;SDS011;50672;53.362;-6.240;2022-11-20T07:40:12;10.37;;;1.73;;
64335;SDS011;50672;53.362;-6.240;2022-11-20T07:42:38;7.57;;;2.33;;
64335;SDS011;50672;53.362;-6.240;2022-11-20T07:45:05;11.40;;;2.23;;
64335;SDS011;50672;53.362;-6.240;2022-11-20T07:47:35;9.30;;;1.53;;
64335;SDS011;50672;53.362;-6.240;2022-11-20T07:50:02;11.73;;;2.50;;
64335;SDS011;50672;53.362;-6.240;2022-11-20T07:52:29;10.33;;;1.83;;
64335;SDS011;50672;53.362;-6.240;2022-11-20T07:54:55;12.07;;;2.47;;
64335;SDS011;50672;53.362;-6.240;2022-11-20T07:57:22;12.43;;;2.77;;
64335;SDS011;50672;53.362;-6.240;2022-11-20T07:59:53;10.87;;;1.70;;
64335;SDS011;50672;53.362;-6.240;2022-11-20T08:02:20;8.87;;;1.93;;
64335;SDS011;50672;53.362;-6.240;2022-11-20T08:04:46;10.33;;;2.13;;
64335;SDS011;50672;53.362;-6.240;2022-11-20T08:07:13;10.13;;;2.13;;
64335;SDS011;50672;53.362;-6.240;2022-11-20T08:09:39;16.70;;;2.93;;
64335;SDS011;50672;53.362;-6.240;2022-11-20T08:12:06;10.83;;;2.83;;
64335;SDS011;50672;53.362;-6.240;2022-11-20T08:14:51;11.57;;;2.07;;
64335;SDS011;50672;53.362;-6.240;2022-11-20T08:17:18;9.43;;;1.77;;
64335;SDS011;50672;53.362;-6.240;2022-11-20T08:19:44;8.33;;;2.40;;
64335;SDS011;50672;53.362;-6.240;2022-11-20T08:22:11;14.00;;;3.00;;
64335;SDS011;50672;53.362;-6.240;2022-11-20T08:24:37;10.10;;;1.60;;
64335;SDS011;50672;53.362;-6.240;2022-11-20T08:27:04;15.97;;;3.73;;
64335;SDS011;50672;53.362;-6.240;2022-11-20T08:29:30;8.03;;;2.87;;
64335;SDS011;50672;53.362;-6.240;2022-11-20T08:31:57;12.80;;;2.17;;
64335;SDS011;50672;53.362;-6.240;2022-11-20T08:34:23;17.83;;;3.73;;
64335;SDS011;50672;53.362;-6.240;2022-11-20T08:36:50;8.90;;;2.60;;
64335;SDS011;50672;53.362;-6.240;2022-11-20T08:39:17;10.43;;;2.00;;
64335;SDS011;50672;53.362;-6.240;2022-11-20T08:41:43;17.80;;;2.30;;
64335;SDS011;50672;53.362;-6.240;2022-11-20T08:44:10;11.53;;;2.83;;
64335;SDS011;50672;53.362;-6.240;2022-11-20T08:46:38;14.40;;;2.83;;
64335;SDS011;50672;53.362;-6.240;2022-11-20T08:49:05;10.87;;;1.87;;
64335;SDS011;50672;53.362;-6.240;2022-11-20T08:51:32;10.67;;;1.73;;
64335;SDS011;50672;53.362;-6.240;2022-11-20T08:53:59;8.70;;;1.57;;
64335;SDS011;50672;53.362;-6.240;2022-11-20T08:56:25;21.83;;;2.70;;
64335;SDS011;50672;53.362;-6.240;2022-11-20T08:58:52;11.93;;;1.70;;
64335;SDS011;50672;53.362;-6.240;2022-11-20T09:01:39;10.70;;;2.77;;
64335;SDS011;50672;53.362;-6.240;2022-11-20T09:04:05;7.73;;;1.63;;
64335;SDS011;50672;53.362;-6.240;2022-11-20T09:06:32;8.33;;;1.63;;
64335;SDS011;50672;53.362;-6.240;2022-11-20T09:08:59;8.03;;;1.53;;
64335;SDS011;50672;53.362;-6.240;2022-11-20T09:11:32;7.88;;;1.55;;
64335;SDS011;50672;53.362;-6.240;2022-11-20T09:13:58;8.53;;;1.50;;
64335;SDS011;50672;53.362;-6.240;2022-11-20T09:16:26;5.83;;;1.27;;
64335;SDS011;50672;53.362;-6.240;2022-11-20T09:18:52;10.90;;;2.03;;
64335;SDS011;50672;53.362;-6.240;2022-11-20T09:21:39;4.63;;;1.40;;
64335;SDS011;50672;53.362;-6.240;2022-11-20T09:24:05;3.50;;;1.37;;
64335;SDS011;50672;53.362;-6.240;2022-11-20T09:26:32;5.53;;;1.63;;
64335;SDS011;50672;53.362;-6.240;2022-11-20T09:28:59;4.27;;;1.23;;
64335;SDS011;50672;53.362;-6.240;2022-11-20T09:31:25;6.70;;;1.33;;
64335;SDS011;50672;53.362;-6.240;2022-11-20T09:33:53;11.40;;;1.20;;
64335;SDS011;50672;53.362;-6.240;2022-11-20T09:36:19;5.53;;;1.17;;
64335;SDS011;50672;53.362;-6.240;2022-11-20T09:38:46;6.50;;;1.37;;
64335;SDS011;50672;53.362;-6.240;2022-11-20T09:43:59;6.73;;;1.43;;
64335;SDS011;50672;53.362;-6.240;2022-11-20T09:46:49;3.37;;;0.83;;
64335;SDS011;50672;53.362;-6.240;2022-11-20T09:49:25;5.77;;;1.20;;
64335;SDS011;50672;53.362;-6.240;2022-11-20T09:52:09;7.63;;;1.70;;
64335;SDS011;50672;53.362;-6.240;2022-11-20T09:54:40;7.85;;;1.33;;
64335;SDS011;50672;53.362;-6.240;2022-11-20T09:57:14;6.90;;;0.90;;
64335;SDS011;50672;53.362;-6.240;2022-11-20T09:59:43;5.30;;;1.10;;
64335;SDS011;50672;53.362;-6.240;2022-11-20T10:02:16;4.33;;;1.23;;
64335;SDS011;50672;53.362;-6.240;2022-11-20T10:04:52;5.50;;;1.33;;
64335;SDS011;50672;53.362;-6.240;2022-11-20T10:07:21;4.20;;;0.83;;
64335;SDS011;50672;53.362;-6.240;2022-11-20T10:09:58;4.63;;;1.27;;
64335;SDS011;50672;53.362;-6.240;2022-11-20T10:12:27;4.90;;;0.73;;
64335;SDS011;50672;53.362;-6.240;2022-11-20T10:25:38;8.70;;;1.63;;
64335;SDS011;50672;53.362;-6.240;2022-11-20T10:28:16;6.03;;;1.00;;
64335;SDS011;50672;53.362;-6.240;2022-11-20T10:30:45;4.77;;;0.90;;
64335;SDS011;50672;53.362;-6.240;2022-11-20T10:33:18;3.60;;;1.40;;
64335;SDS011;50672;53.362;-6.240;2022-11-20T10:38:23;3.90;;;0.97;;
64335;SDS011;50672;53.362;-6.240;2022-11-20T10:40:59;4.77;;;1.23;;
64335;SDS011;50672;53.362;-6.240;2022-11-20T10:43:46;3.63;;;1.07;;
64335;SDS011;50672;53.362;-6.240;2022-11-20T10:46:16;3.50;;;0.70;;
64335;SDS011;50672;53.362;-6.240;2022-11-20T10:48:43;1.63;;;0.80;;
64335;SDS011;50672;53.362;-6.240;2022-11-20T10:56:29;6.77;;;1.20;;
64335;SDS011;50672;53.362;-6.240;2022-11-20T11:01:27;2.60;;;0.70;;
64335;SDS011;50672;53.362;-6.240;2022-11-20T11:03:55;3.13;;;0.60;;
64335;SDS011;50672;53.362;-6.240;2022-11-20T11:06:29;3.47;;;1.10;;
64335;SDS011;50672;53.362;-6.240;2022-11-20T11:08:58;1.57;;;0.70;;
64335;SDS011;50672;53.362;-6.240;2022-11-20T11:11:30;2.93;;;0.67;;
64335;SDS011;50672;53.362;-6.240;2022-11-20T11:14:12;3.53;;;0.70;;
64335;SDS011;50672;53.362;-6.240;2022-11-20T11:16:49;2.27;;;0.90;;
64335;SDS011;50672;53.362;-6.240;2022-11-20T11:19:16;2.67;;;0.73;;
64335;SDS011;50672;53.362;-6.240;2022-11-20T11:21:47;1.37;;;0.40;;
64335;SDS011;50672;53.362;-6.240;2022-11-20T11:27:11;2.33;;;0.60;;
64335;SDS011;50672;53.362;-6.240;2022-11-20T11:29:43;1.10;;;0.40;;
64335;SDS011;50672;53.362;-6.240;2022-11-20T11:32:13;3.63;;;0.60;;
64335;SDS011;50672;53.362;-6.240;2022-11-20T11:34:40;1.77;;;0.47;;
64335;SDS011;50672;53.362;-6.240;2022-11-20T11:37:12;1.43;;;0.50;;
64335;SDS011;50672;53.362;-6.240;2022-11-20T11:39:40;0.52;;;0.40;;
64335;SDS011;50672;53.362;-6.240;2022-11-20T11:42:10;0.90;;;0.63;;
64335;SDS011;50672;53.362;-6.240;2022-11-20T11:44:43;1.37;;;0.40;;
64335;SDS011;50672;53.362;-6.240;2022-11-20T11:47:30;0.40;;;0.30;;
64335;SDS011;50672;53.362;-6.240;2022-11-20T11:50:07;0.70;;;0.47;;
64335;SDS011;50672;53.362;-6.240;2022-11-20T11:55:17;0.98;;;0.40;;
64335;SDS011;50672;53.362;-6.240;2022-11-20T11:57:52;0.77;;;0.47;;
64335;SDS011;50672;53.362;-6.240;2022-11-20T12:00:21;1.40;;;0.43;;
64335;SDS011;50672;53.362;-6.240;2022-11-20T12:02:57;0.53;;;0.47;;
64335;SDS011;50672;53.362;-6.240;2022-11-20T12:05:32;1.30;;;0.50;;
64335;SDS011;50672;53.362;-6.240;2022-11-20T12:08:03;1.33;;;0.50;;
64335;SDS011;50672;53.362;-6.240;2022-11-20T12:13:09;1.20;;;0.50;;
64335;SDS011;50672;53.362;-6.240;2022-11-20T12:15:37;1.52;;;0.80;;
64335;SDS011;50672;53.362;-6.240;2022-11-20T12:18:11;1.60;;;0.40;;
64335;SDS011;50672;53.362;-6.240;2022-11-20T12:20:43;1.20;;;0.60;;
64335;SDS011;50672;53.362;-6.240;2022-11-20T12:23:17;2.50;;;0.57;;
64335;SDS011;50672;53.362;-6.240;2022-11-20T12:25:48;4.47;;;1.00;;
64335;SDS011;50672;53.362;-6.240;2022-11-20T12:28:50;2.20;;;0.80;;
64335;SDS011;50672;53.362;-6.240;2022-11-20T12:31:34;1.90;;;0.90;;
64335;SDS011;50672;53.362;-6.240;2022-11-20T12:34:02;2.67;;;0.70;;
64335;SDS011;50672;53.362;-6.240;2022-11-20T12:36:36;1.90;;;0.70;;
64335;SDS011;50672;53.362;-6.240;2022-11-20T12:39:13;1.70;;;0.60;;
64335;SDS011;50672;53.362;-6.240;2022-11-20T12:44:52;1.17;;;0.50;;
64335;SDS011;50672;53.362;-6.240;2022-11-20T12:47:45;1.63;;;0.57;;
64335;SDS011;50672;53.362;-6.240;2022-11-20T12:56:08;3.60;;;1.13;;
64335;SDS011;50672;53.362;-6.240;2022-11-20T13:01:38;2.53;;;0.80;;
64335;SDS011;50672;53.362;-6.240;2022-11-20T13:04:08;2.10;;;0.73;;
64335;SDS011;50672;53.362;-6.240;2022-11-20T13:06:39;2.00;;;1.00;;
64335;SDS011;50672;53.362;-6.240;2022-11-20T13:09:08;3.07;;;1.00;;
64335;SDS011;50672;53.362;-6.240;2022-11-20T13:14:19;4.07;;;0.87;;
64335;SDS011;50672;53.362;-6.240;2022-11-20T13:19:18;4.63;;;0.67;;
64335;SDS011;50672;53.362;-6.240;2022-11-20T13:21:46;2.60;;;0.90;;
64335;SDS011;50672;53.362;-6.240;2022-11-20T13:24:22;2.57;;;0.60;;
64335;SDS011;50672;53.362;-6.240;2022-11-20T13:27:04;3.80;;;0.60;;
64335;SDS011;50672;53.362;-6.240;2022-11-20T13:29:40;4.71;;;0.80;;
64335;SDS011;50672;53.362;-6.240;2022-11-20T13:32:18;3.23;;;1.30;;
64335;SDS011;50672;53.362;-6.240;2022-11-20T13:39:45;5.47;;;0.70;;
64335;SDS011;50672;53.362;-6.240;2022-11-20T13:44:42;5.50;;;1.33;;
64335;SDS011;50672;53.362;-6.240;2022-11-20T13:47:46;1.97;;;0.90;;
64335;SDS011;50672;53.362;-6.240;2022-11-20T13:50:03;2.10;;;0.90;;
64335;SDS011;50672;53.362;-6.240;2022-11-20T13:52:43;2.23;;;0.83;;
64335;SDS011;50672;53.362;-6.240;2022-11-20T13:55:21;3.73;;;1.30;;
64335;SDS011;50672;53.362;-6.240;2022-11-20T14:00:41;5.60;;;1.37;;
64335;SDS011;50672;53.362;-6.240;2022-11-20T14:03:17;4.47;;;2.40;;
64335;SDS011;50672;53.362;-6.240;2022-11-20T14:06:00;3.33;;;1.00;;
64335;SDS011;50672;53.362;-6.240;2022-11-20T14:13:50;3.83;;;1.30;;
64335;SDS011;50672;53.362;-6.240;2022-11-20T14:16:20;6.87;;;1.73;;
64335;SDS011;50672;53.362;-6.240;2022-11-20T14:18:47;4.53;;;1.37;;
64335;SDS011;50672;53.362;-6.240;2022-11-20T14:21:23;5.13;;;0.87;;
64335;SDS011;50672;53.362;-6.240;2022-11-20T14:23:54;3.23;;;1.17;;
64335;SDS011;50672;53.362;-6.240;2022-11-20T14:26:28;3.37;;;1.20;;
64335;SDS011;50672;53.362;-6.240;2022-11-20T14:28:55;6.97;;;1.30;;
64335;SDS011;50672;53.362;-6.240;2022-11-20T14:31:25;5.00;;;1.40;;
64335;SDS011;50672;53.362;-6.240;2022-11-20T14:33:53;3.23;;;1.00;;
64335;SDS011;50672;53.362;-6.240;2022-11-20T14:36:21;3.57;;;0.97;;
64335;SDS011;50672;53.362;-6.240;2022-11-20T14:38:49;5.37;;;0.87;;
64335;SDS011;50672;53.362;-6.240;2022-11-20T14:41:18;4.30;;;0.87;;
64335;SDS011;50672;53.362;-6.240;2022-11-20T14:43:45;4.90;;;1.80;;
64335;SDS011;50672;53.362;-6.240;2022-11-20T14:46:12;3.93;;;1.90;;
64335;SDS011;50672;53.362;-6.240;2022-11-20T14:48:41;5.10;;;1.67;;
64335;SDS011;50672;53.362;-6.240;2022-11-20T14:51:10;4.77;;;1.73;;
64335;SDS011;50672;53.362;-6.240;2022-11-20T14:53:37;5.40;;;2.00;;
64335;SDS011;50672;53.362;-6.240;2022-11-20T14:56:03;5.70;;;1.80;;
64335;SDS011;50672;53.362;-6.240;2022-11-20T14:58:31;4.43;;;1.57;;
64335;SDS011;50672;53.362;-6.240;2022-11-20T15:01:03;8.07;;;2.07;;
64335;SDS011;50672;53.362;-6.240;2022-11-20T15:03:35;4.87;;;1.63;;
64335;SDS011;50672;53.362;-6.240;2022-11-20T15:06:02;5.90;;;2.00;;
64335;SDS011;50672;53.362;-6.240;2022-11-20T15:08:29;9.17;;;4.50;;
64335;SDS011;50672;53.362;-6.240;2022-11-20T15:10:56;6.70;;;1.67;;
64335;SDS011;50672;53.362;-6.240;2022-11-20T15:15:59;10.23;;;2.30;;
64335;SDS011;50672;53.362;-6.240;2022-11-20T15:18:30;5.13;;;1.50;;
64335;SDS011;50672;53.362;-6.240;2022-11-20T15:20:58;5.77;;;1.87;;
64335;SDS011;50672;53.362;-6.240;2022-11-20T15:23:26;5.63;;;2.27;;
64335;SDS011;50672;53.362;-6.240;2022-11-20T15:25:53;3.77;;;1.67;;
64335;SDS011;50672;53.362;-6.240;2022-11-20T15:30:47;5.60;;;3.80;;
64335;SDS011;50672;53.362;-6.240;2022-11-20T15:33:14;4.07;;;2.50;;
64335;SDS011;50672;53.362;-6.240;2022-11-20T15:35:41;9.83;;;4.93;;
64335;SDS011;50672;53.362;-6.240;2022-11-20T15:38:08;5.03;;;2.43;;
64335;SDS011;50672;53.362;-6.240;2022-11-20T15:40:35;7.97;;;3.00;;
64335;SDS011;50672;53.362;-6.240;2022-11-20T15:43:02;4.60;;;2.17;;
64335;SDS011;50672;53.362;-6.240;2022-11-20T15:48:31;11.68;;;3.72;;
64335;SDS011;50672;53.362;-6.240;2022-11-20T15:51:19;7.10;;;2.80;;
64335;SDS011;50672;53.362;-6.240;2022-11-20T15:53:47;10.77;;;2.97;;
64335;SDS011;50672;53.362;-6.240;2022-11-20T15:56:14;10.90;;;4.67;;
64335;SDS011;50672;53.362;-6.240;2022-11-20T15:58:40;13.30;;;5.27;;